sensor_id;sensor_type;location;lat;lon;timestamp;temperature;humidity
66088;DHT22;52872;52.994;6.940;2024-03-06T00:01:33;5.80;99.90
66088;DHT22;52872;52.994;6.940;2024-03-06T00:04:02;5.80;99.90
66088;DHT22;52872;52.994;6.940;2024-03-06T00:06:30;6.00;99.90
66088;DHT22;52872;52.994;6.940;2024-03-06T00:08:57;5.70;99.90
66088;DHT22;52872;52.994;6.940;2024-03-06T00:11:24;5.70;99.90
66088;DHT22;52872;52.994;6.940;2024-03-06T00:13:52;5.70;99.90
66088;DHT22;52872;52.994;6.940;2024-03-06T00:16:19;5.70;99.90
66088;DHT22;52872;52.994;6.940;2024-03-06T00:18:47;5.80;99.90
66088;DHT22;52872;52.994;6.940;2024-03-06T00:21:14;5.70;99.90
66088;DHT22;52872;52.994;6.940;2024-03-06T00:23:41;5.70;99.90
66088;DHT22;52872;52.994;6.940;2024-03-06T00:26:09;5.70;99.90
66088;DHT22;52872;52.994;6.940;2024-03-06T00:28:36;5.70;99.90
66088;DHT22;52872;52.994;6.940;2024-03-06T00:31:05;5.80;99.90
66088;DHT22;52872;52.994;6.940;2024-03-06T00:33:32;5.80;99.90
66088;DHT22;52872;52.994;6.940;2024-03-06T00:35:59;5.80;99.90
66088;DHT22;52872;52.994;6.940;2024-03-06T00:38:26;5.80;99.90
66088;DHT22;52872;52.994;6.940;2024-03-06T00:40:53;5.80;99.90
66088;DHT22;52872;52.994;6.940;2024-03-06T00:43:20;5.80;99.90
66088;DHT22;52872;52.994;6.940;2024-03-06T00:45:47;5.80;99.90
66088;DHT22;52872;52.994;6.940;2024-03-06T00:48:14;5.80;99.90
66088;DHT22;52872;52.994;6.940;2024-03-06T00:50:40;5.80;99.90
66088;DHT22;52872;52.994;6.940;2024-03-06T00:53:07;5.80;99.90
66088;DHT22;52872;52.994;6.940;2024-03-06T00:55:34;5.80;99.90
66088;DHT22;52872;52.994;6.940;2024-03-06T00:58:01;5.80;99.90
66088;DHT22;52872;52.994;6.940;2024-03-06T01:00:29;5.80;99.90
66088;DHT22;52872;52.994;6.940;2024-03-06T01:02:56;6.00;99.90
66088;DHT22;52872;52.994;6.940;2024-03-06T01:05:23;5.80;99.90
66088;DHT22;52872;52.994;6.940;2024-03-06T01:07:50;5.80;99.90
66088;DHT22;52872;52.994;6.940;2024-03-06T01:10:17;5.90;99.90
66088;DHT22;52872;52.994;6.940;2024-03-06T01:12:44;5.80;99.90
66088;DHT22;52872;52.994;6.940;2024-03-06T01:15:12;5.90;99.90
66088;DHT22;52872;52.994;6.940;2024-03-06T01:17:39;5.90;99.90
66088;DHT22;52872;52.994;6.940;2024-03-06T01:20:07;5.80;99.90
66088;DHT22;52872;52.994;6.940;2024-03-06T01:22:34;5.90;99.90
66088;DHT22;52872;52.994;6.940;2024-03-06T01:25:02;5.80;99.90
66088;DHT22;52872;52.994;6.940;2024-03-06T01:27:29;5.90;99.90
66088;DHT22;52872;52.994;6.940;2024-03-06T01:29:56;5.90;99.90
66088;DHT22;52872;52.994;6.940;2024-03-06T01:32:23;5.80;99.90
66088;DHT22;52872;52.994;6.940;2024-03-06T01:34:50;5.80;99.90
66088;DHT22;52872;52.994;6.940;2024-03-06T01:37:17;5.80;99.90
66088;DHT22;52872;52.994;6.940;2024-03-06T01:39:44;5.80;99.90
66088;DHT22;52872;52.994;6.940;2024-03-06T01:42:11;5.80;99.90
66088;DHT22;52872;52.994;6.940;2024-03-06T01:44:38;5.70;99.90
66088;DHT22;52872;52.994;6.940;2024-03-06T01:47:05;5.70;99.90
66088;DHT22;52872;52.994;6.940;2024-03-06T01:49:33;5.70;99.90
66088;DHT22;52872;52.994;6.940;2024-03-06T01:52:07;5.70;99.90
66088;DHT22;52872;52.994;6.940;2024-03-06T01:54:35;5.70;99.90
66088;DHT22;52872;52.994;6.940;2024-03-06T01:57:03;5.70;99.90
66088;DHT22;52872;52.994;6.940;2024-03-06T01:59:31;5.70;99.90
66088;DHT22;52872;52.994;6.940;2024-03-06T02:02:03;5.60;99.90
66088;DHT22;52872;52.994;6.940;2024-03-06T02:04:31;5.60;99.90
66088;DHT22;52872;52.994;6.940;2024-03-06T02:06:58;5.60;99.90
66088;DHT22;52872;52.994;6.940;2024-03-06T02:09:26;5.60;99.90
66088;DHT22;52872;52.994;6.940;2024-03-06T02:11:53;5.60;99.90
66088;DHT22;52872;52.994;6.940;2024-03-06T02:14:20;5.60;99.90
66088;DHT22;52872;52.994;6.940;2024-03-06T02:16:47;5.70;99.90
66088;DHT22;52872;52.994;6.940;2024-03-06T02:19:14;5.60;99.90
66088;DHT22;52872;52.994;6.940;2024-03-06T02:21:42;5.70;99.90
66088;DHT22;52872;52.994;6.940;2024-03-06T02:24:10;5.80;99.90
66088;DHT22;52872;52.994;6.940;2024-03-06T02:26:38;5.70;99.90
66088;DHT22;52872;52.994;6.940;2024-03-06T02:29:06;5.70;99.90
66088;DHT22;52872;52.994;6.940;2024-03-06T02:31:33;5.70;99.90
66088;DHT22;52872;52.994;6.940;2024-03-06T02:34:00;5.80;99.90
66088;DHT22;52872;52.994;6.940;2024-03-06T02:36:31;5.70;99.90
66088;DHT22;52872;52.994;6.940;2024-03-06T02:38:59;5.70;99.90
66088;DHT22;52872;52.994;6.940;2024-03-06T02:41:26;5.70;99.90
66088;DHT22;52872;52.994;6.940;2024-03-06T02:43:53;5.80;99.90
66088;DHT22;52872;52.994;6.940;2024-03-06T02:46:20;5.80;99.90
66088;DHT22;52872;52.994;6.940;2024-03-06T02:48:47;5.80;99.90
66088;DHT22;52872;52.994;6.940;2024-03-06T02:51:18;5.80;99.90
66088;DHT22;52872;52.994;6.940;2024-03-06T02:53:46;5.80;99.90
66088;DHT22;52872;52.994;6.940;2024-03-06T02:56:17;5.90;99.90
66088;DHT22;52872;52.994;6.940;2024-03-06T02:58:44;5.70;99.90
66088;DHT22;52872;52.994;6.940;2024-03-06T03:01:13;5.70;99.90
66088;DHT22;52872;52.994;6.940;2024-03-06T03:03:43;5.70;99.90
66088;DHT22;52872;52.994;6.940;2024-03-06T03:06:11;5.70;99.90
66088;DHT22;52872;52.994;6.940;2024-03-06T03:08:39;5.70;99.90
66088;DHT22;52872;52.994;6.940;2024-03-06T03:11:06;5.70;99.90
66088;DHT22;52872;52.994;6.940;2024-03-06T03:13:34;5.70;99.90
66088;DHT22;52872;52.994;6.940;2024-03-06T03:16:01;5.60;99.90
66088;DHT22;52872;52.994;6.940;2024-03-06T03:18:30;5.60;99.90
66088;DHT22;52872;52.994;6.940;2024-03-06T03:20:57;5.60;99.90
66088;DHT22;52872;52.994;6.940;2024-03-06T03:23:24;5.60;99.90
66088;DHT22;52872;52.994;6.940;2024-03-06T03:25:51;5.60;99.90
66088;DHT22;52872;52.994;6.940;2024-03-06T03:28:18;5.60;99.90
66088;DHT22;52872;52.994;6.940;2024-03-06T03:30:45;5.60;99.90
66088;DHT22;52872;52.994;6.940;2024-03-06T03:33:12;5.70;99.90
66088;DHT22;52872;52.994;6.940;2024-03-06T03:35:39;5.60;99.90
66088;DHT22;52872;52.994;6.940;2024-03-06T03:38:06;5.60;99.90
66088;DHT22;52872;52.994;6.940;2024-03-06T03:40:33;5.60;99.90
66088;DHT22;52872;52.994;6.940;2024-03-06T03:43:00;5.60;99.90
66088;DHT22;52872;52.994;6.940;2024-03-06T03:45:33;5.60;99.90
66088;DHT22;52872;52.994;6.940;2024-03-06T03:48:03;5.60;99.90
66088;DHT22;52872;52.994;6.940;2024-03-06T03:50:31;5.60;99.90
66088;DHT22;52872;52.994;6.940;2024-03-06T03:52:58;5.60;99.90
66088;DHT22;52872;52.994;6.940;2024-03-06T03:55:28;5.60;99.90
66088;DHT22;52872;52.994;6.940;2024-03-06T03:57:54;5.60;99.90
66088;DHT22;52872;52.994;6.940;2024-03-06T04:00:21;5.60;99.90
66088;DHT22;52872;52.994;6.940;2024-03-06T04:02:49;5.50;99.90
66088;DHT22;52872;52.994;6.940;2024-03-06T04:05:16;5.50;99.90
66088;DHT22;52872;52.994;6.940;2024-03-06T04:07:44;5.50;99.90
66088;DHT22;52872;52.994;6.940;2024-03-06T04:10:11;5.50;99.90
66088;DHT22;52872;52.994;6.940;2024-03-06T04:12:38;5.50;99.90
66088;DHT22;52872;52.994;6.940;2024-03-06T04:15:06;5.60;99.90
66088;DHT22;52872;52.994;6.940;2024-03-06T04:17:34;5.50;99.90
66088;DHT22;52872;52.994;6.940;2024-03-06T04:20:03;5.50;99.90
66088;DHT22;52872;52.994;6.940;2024-03-06T04:22:32;5.50;99.90
66088;DHT22;52872;52.994;6.940;2024-03-06T04:24:59;5.50;99.90
66088;DHT22;52872;52.994;6.940;2024-03-06T04:27:26;5.50;99.90
66088;DHT22;52872;52.994;6.940;2024-03-06T04:29:53;5.50;99.90
66088;DHT22;52872;52.994;6.940;2024-03-06T04:32:20;5.50;99.90
66088;DHT22;52872;52.994;6.940;2024-03-06T04:34:47;5.50;99.90
66088;DHT22;52872;52.994;6.940;2024-03-06T04:37:14;5.50;99.90
66088;DHT22;52872;52.994;6.940;2024-03-06T04:39:41;5.50;99.90
66088;DHT22;52872;52.994;6.940;2024-03-06T04:42:08;5.50;99.90
66088;DHT22;52872;52.994;6.940;2024-03-06T04:44:36;5.50;99.90
66088;DHT22;52872;52.994;6.940;2024-03-06T04:47:03;5.50;99.90
66088;DHT22;52872;52.994;6.940;2024-03-06T04:49:33;5.50;99.90
66088;DHT22;52872;52.994;6.940;2024-03-06T04:52:03;5.50;99.90
66088;DHT22;52872;52.994;6.940;2024-03-06T04:54:31;5.50;99.90
66088;DHT22;52872;52.994;6.940;2024-03-06T04:56:58;5.50;99.90
66088;DHT22;52872;52.994;6.940;2024-03-06T04:59:25;5.50;99.90
66088;DHT22;52872;52.994;6.940;2024-03-06T05:01:52;5.70;99.90
66088;DHT22;52872;52.994;6.940;2024-03-06T05:04:19;5.50;99.90
66088;DHT22;52872;52.994;6.940;2024-03-06T05:07:05;5.50;99.90
66088;DHT22;52872;52.994;6.940;2024-03-06T05:09:49;5.50;99.90
66088;DHT22;52872;52.994;6.940;2024-03-06T05:12:34;5.50;99.90
66088;DHT22;52872;52.994;6.940;2024-03-06T05:15:19;5.50;99.90
66088;DHT22;52872;52.994;6.940;2024-03-06T05:18:04;5.50;99.90
66088;DHT22;52872;52.994;6.940;2024-03-06T05:20:49;5.50;99.90
66088;DHT22;52872;52.994;6.940;2024-03-06T05:23:33;5.40;99.90
66088;DHT22;52872;52.994;6.940;2024-03-06T05:26:17;5.40;99.90
66088;DHT22;52872;52.994;6.940;2024-03-06T05:29:02;5.40;99.90
66088;DHT22;52872;52.994;6.940;2024-03-06T05:31:47;5.50;99.90
66088;DHT22;52872;52.994;6.940;2024-03-06T05:34:31;5.50;99.90
66088;DHT22;52872;52.994;6.940;2024-03-06T05:37:16;5.40;99.90
66088;DHT22;52872;52.994;6.940;2024-03-06T05:40:00;5.50;99.90
66088;DHT22;52872;52.994;6.940;2024-03-06T05:42:44;5.50;99.90
66088;DHT22;52872;52.994;6.940;2024-03-06T05:45:29;5.50;99.90
66088;DHT22;52872;52.994;6.940;2024-03-06T05:48:13;5.50;99.90
66088;DHT22;52872;52.994;6.940;2024-03-06T05:50:58;5.50;99.90
66088;DHT22;52872;52.994;6.940;2024-03-06T05:53:42;5.50;99.90
66088;DHT22;52872;52.994;6.940;2024-03-06T05:56:28;5.50;99.90
66088;DHT22;52872;52.994;6.940;2024-03-06T05:59:12;5.50;99.90
66088;DHT22;52872;52.994;6.940;2024-03-06T06:01:39;5.50;99.90
66088;DHT22;52872;52.994;6.940;2024-03-06T06:04:06;5.50;99.90
66088;DHT22;52872;52.994;6.940;2024-03-06T06:06:33;5.50;99.90
66088;DHT22;52872;52.994;6.940;2024-03-06T06:09:01;5.50;99.90
66088;DHT22;52872;52.994;6.940;2024-03-06T06:11:30;5.50;99.90
66088;DHT22;52872;52.994;6.940;2024-03-06T06:13:57;5.50;99.90
66088;DHT22;52872;52.994;6.940;2024-03-06T06:16:24;5.50;99.90
66088;DHT22;52872;52.994;6.940;2024-03-06T06:18:51;5.50;99.90
66088;DHT22;52872;52.994;6.940;2024-03-06T06:21:19;5.60;99.90
66088;DHT22;52872;52.994;6.940;2024-03-06T06:23:46;5.60;99.90
66088;DHT22;52872;52.994;6.940;2024-03-06T06:26:14;5.60;99.90
66088;DHT22;52872;52.994;6.940;2024-03-06T06:28:41;5.60;99.90
66088;DHT22;52872;52.994;6.940;2024-03-06T06:31:09;5.60;99.90
66088;DHT22;52872;52.994;6.940;2024-03-06T06:33:36;5.60;99.90
66088;DHT22;52872;52.994;6.940;2024-03-06T06:36:03;5.60;99.90
66088;DHT22;52872;52.994;6.940;2024-03-06T06:38:30;5.60;99.90
66088;DHT22;52872;52.994;6.940;2024-03-06T06:40:57;5.60;99.90
66088;DHT22;52872;52.994;6.940;2024-03-06T06:43:24;5.60;99.90
66088;DHT22;52872;52.994;6.940;2024-03-06T06:45:51;5.70;99.90
66088;DHT22;52872;52.994;6.940;2024-03-06T06:48:20;5.70;99.90
66088;DHT22;52872;52.994;6.940;2024-03-06T06:50:47;5.70;99.90
66088;DHT22;52872;52.994;6.940;2024-03-06T06:53:14;5.70;99.90
66088;DHT22;52872;52.994;6.940;2024-03-06T06:55:42;5.80;99.90
66088;DHT22;52872;52.994;6.940;2024-03-06T06:58:09;5.80;99.90
66088;DHT22;52872;52.994;6.940;2024-03-06T07:00:36;5.80;99.90
66088;DHT22;52872;52.994;6.940;2024-03-06T07:03:04;5.80;99.90
66088;DHT22;52872;52.994;6.940;2024-03-06T07:05:31;5.80;99.90
66088;DHT22;52872;52.994;6.940;2024-03-06T07:07:58;5.90;99.90
66088;DHT22;52872;52.994;6.940;2024-03-06T07:10:25;5.90;99.90
66088;DHT22;52872;52.994;6.940;2024-03-06T07:12:53;5.90;99.90
66088;DHT22;52872;52.994;6.940;2024-03-06T07:15:20;5.90;99.90
66088;DHT22;52872;52.994;6.940;2024-03-06T07:17:47;5.90;99.90
66088;DHT22;52872;52.994;6.940;2024-03-06T07:20:14;5.90;99.90
66088;DHT22;52872;52.994;6.940;2024-03-06T07:22:41;5.90;99.90
66088;DHT22;52872;52.994;6.940;2024-03-06T07:25:09;5.90;99.90
66088;DHT22;52872;52.994;6.940;2024-03-06T07:27:36;5.90;99.90
66088;DHT22;52872;52.994;6.940;2024-03-06T07:30:04;5.90;99.90
66088;DHT22;52872;52.994;6.940;2024-03-06T07:32:32;5.90;99.90
66088;DHT22;52872;52.994;6.940;2024-03-06T07:34:59;6.00;99.90
66088;DHT22;52872;52.994;6.940;2024-03-06T07:37:26;6.00;99.90
66088;DHT22;52872;52.994;6.940;2024-03-06T07:39:53;6.00;99.90
66088;DHT22;52872;52.994;6.940;2024-03-06T07:42:20;6.00;99.90
66088;DHT22;52872;52.994;6.940;2024-03-06T07:44:47;6.00;99.90
66088;DHT22;52872;52.994;6.940;2024-03-06T07:47:14;6.10;99.90
66088;DHT22;52872;52.994;6.940;2024-03-06T07:49:42;6.10;99.90
66088;DHT22;52872;52.994;6.940;2024-03-06T07:52:11;6.10;99.90
66088;DHT22;52872;52.994;6.940;2024-03-06T07:54:38;6.10;99.90
66088;DHT22;52872;52.994;6.940;2024-03-06T07:57:06;6.20;99.90
66088;DHT22;52872;52.994;6.940;2024-03-06T07:59:33;6.20;99.90
66088;DHT22;52872;52.994;6.940;2024-03-06T08:02:00;6.20;99.90
66088;DHT22;52872;52.994;6.940;2024-03-06T08:04:27;6.20;99.90
66088;DHT22;52872;52.994;6.940;2024-03-06T08:06:55;6.30;99.90
66088;DHT22;52872;52.994;6.940;2024-03-06T08:09:22;6.30;99.90
66088;DHT22;52872;52.994;6.940;2024-03-06T08:11:50;6.40;99.90
66088;DHT22;52872;52.994;6.940;2024-03-06T08:14:17;6.40;99.90
66088;DHT22;52872;52.994;6.940;2024-03-06T08:16:44;6.40;99.90
66088;DHT22;52872;52.994;6.940;2024-03-06T08:19:11;6.40;99.90
66088;DHT22;52872;52.994;6.940;2024-03-06T08:21:38;6.40;99.90
66088;DHT22;52872;52.994;6.940;2024-03-06T08:24:05;6.50;99.90
66088;DHT22;52872;52.994;6.940;2024-03-06T08:26:32;6.50;99.90
66088;DHT22;52872;52.994;6.940;2024-03-06T08:28:59;6.60;99.90
66088;DHT22;52872;52.994;6.940;2024-03-06T08:31:26;6.60;99.90
66088;DHT22;52872;52.994;6.940;2024-03-06T08:33:53;6.60;99.90
66088;DHT22;52872;52.994;6.940;2024-03-06T08:36:21;6.60;99.90
66088;DHT22;52872;52.994;6.940;2024-03-06T08:38:48;6.60;99.90
66088;DHT22;52872;52.994;6.940;2024-03-06T08:41:15;6.60;99.90
66088;DHT22;52872;52.994;6.940;2024-03-06T08:43:43;6.60;99.90
66088;DHT22;52872;52.994;6.940;2024-03-06T08:46:11;6.80;99.90
66088;DHT22;52872;52.994;6.940;2024-03-06T08:48:39;6.70;99.90
66088;DHT22;52872;52.994;6.940;2024-03-06T08:51:06;6.70;99.90
66088;DHT22;52872;52.994;6.940;2024-03-06T08:53:37;6.70;99.90
66088;DHT22;52872;52.994;6.940;2024-03-06T08:56:05;6.70;99.90
66088;DHT22;52872;52.994;6.940;2024-03-06T08:58:33;6.80;99.90
66088;DHT22;52872;52.994;6.940;2024-03-06T09:01:00;6.90;99.90
66088;DHT22;52872;52.994;6.940;2024-03-06T09:03:27;7.10;99.90
66088;DHT22;52872;52.994;6.940;2024-03-06T09:05:54;7.20;99.90
66088;DHT22;52872;52.994;6.940;2024-03-06T09:08:21;7.30;99.90
66088;DHT22;52872;52.994;6.940;2024-03-06T09:10:48;7.40;99.90
66088;DHT22;52872;52.994;6.940;2024-03-06T09:13:14;7.50;99.90
66088;DHT22;52872;52.994;6.940;2024-03-06T09:15:41;7.60;99.90
66088;DHT22;52872;52.994;6.940;2024-03-06T09:18:08;7.60;99.90
66088;DHT22;52872;52.994;6.940;2024-03-06T09:20:35;7.70;99.90
66088;DHT22;52872;52.994;6.940;2024-03-06T09:23:03;7.70;99.90
66088;DHT22;52872;52.994;6.940;2024-03-06T09:25:30;7.70;99.90
66088;DHT22;52872;52.994;6.940;2024-03-06T09:27:57;7.70;99.90
66088;DHT22;52872;52.994;6.940;2024-03-06T09:30:24;7.70;99.90
66088;DHT22;52872;52.994;6.940;2024-03-06T09:32:50;7.80;99.90
66088;DHT22;52872;52.994;6.940;2024-03-06T09:35:18;7.70;99.90
66088;DHT22;52872;52.994;6.940;2024-03-06T09:37:45;7.60;99.90
66088;DHT22;52872;52.994;6.940;2024-03-06T09:40:20;7.60;99.90
66088;DHT22;52872;52.994;6.940;2024-03-06T09:42:51;7.50;99.90
66088;DHT22;52872;52.994;6.940;2024-03-06T09:45:19;7.50;99.90
66088;DHT22;52872;52.994;6.940;2024-03-06T09:47:47;7.40;99.90
66088;DHT22;52872;52.994;6.940;2024-03-06T09:50:18;7.40;99.90
66088;DHT22;52872;52.994;6.940;2024-03-06T09:52:51;7.40;99.90
66088;DHT22;52872;52.994;6.940;2024-03-06T09:55:21;7.40;99.90
66088;DHT22;52872;52.994;6.940;2024-03-06T09:57:48;7.50;99.90
66088;DHT22;52872;52.994;6.940;2024-03-06T10:00:17;7.60;99.90
66088;DHT22;52872;52.994;6.940;2024-03-06T10:02:54;7.70;99.90
66088;DHT22;52872;52.994;6.940;2024-03-06T10:05:22;7.80;99.90
66088;DHT22;52872;52.994;6.940;2024-03-06T10:07:53;7.70;99.90
66088;DHT22;52872;52.994;6.940;2024-03-06T10:10:20;7.70;99.90
66088;DHT22;52872;52.994;6.940;2024-03-06T10:12:50;7.80;99.90
66088;DHT22;52872;52.994;6.940;2024-03-06T10:15:17;7.90;99.90
66088;DHT22;52872;52.994;6.940;2024-03-06T10:17:45;8.00;99.90
66088;DHT22;52872;52.994;6.940;2024-03-06T10:20:21;8.20;99.90
66088;DHT22;52872;52.994;6.940;2024-03-06T10:22:50;8.50;99.90
66088;DHT22;52872;52.994;6.940;2024-03-06T10:25:21;8.60;99.90
66088;DHT22;52872;52.994;6.940;2024-03-06T10:28:08;8.70;99.90
66088;DHT22;52872;52.994;6.940;2024-03-06T10:30:40;8.80;99.90
66088;DHT22;52872;52.994;6.940;2024-03-06T10:33:09;8.90;99.90
66088;DHT22;52872;52.994;6.940;2024-03-06T10:35:37;8.90;99.70
66088;DHT22;52872;52.994;6.940;2024-03-06T10:38:07;8.80;98.70
66088;DHT22;52872;52.994;6.940;2024-03-06T10:40:36;8.80;99.60
66088;DHT22;52872;52.994;6.940;2024-03-06T10:43:05;8.90;99.80
66088;DHT22;52872;52.994;6.940;2024-03-06T10:48:19;9.30;99.20
66088;DHT22;52872;52.994;6.940;2024-03-06T10:50:48;9.50;98.40
66088;DHT22;52872;52.994;6.940;2024-03-06T10:53:17;9.60;98.20
66088;DHT22;52872;52.994;6.940;2024-03-06T10:55:46;9.60;97.30
66088;DHT22;52872;52.994;6.940;2024-03-06T10:58:13;9.60;97.80
66088;DHT22;52872;52.994;6.940;2024-03-06T11:00:42;9.80;98.20
66088;DHT22;52872;52.994;6.940;2024-03-06T11:03:11;10.00;98.00
66088;DHT22;52872;52.994;6.940;2024-03-06T11:05:42;10.20;97.90
66088;DHT22;52872;52.994;6.940;2024-03-06T11:08:11;10.30;96.70
66088;DHT22;52872;52.994;6.940;2024-03-06T11:10:40;10.50;97.10
66088;DHT22;52872;52.994;6.940;2024-03-06T11:15:50;10.60;95.50
66088;DHT22;52872;52.994;6.940;2024-03-06T11:23:32;10.40;95.90
66088;DHT22;52872;52.994;6.940;2024-03-06T11:26:06;10.50;96.30
66088;DHT22;52872;52.994;6.940;2024-03-06T11:28:35;10.50;96.00
66088;DHT22;52872;52.994;6.940;2024-03-06T11:31:10;10.50;96.40
66088;DHT22;52872;52.994;6.940;2024-03-06T11:33:47;10.70;96.40
66088;DHT22;52872;52.994;6.940;2024-03-06T11:36:25;11.00;95.10
66088;DHT22;52872;52.994;6.940;2024-03-06T11:38:55;11.10;95.50
66088;DHT22;52872;52.994;6.940;2024-03-06T11:41:24;11.30;95.00
66088;DHT22;52872;52.994;6.940;2024-03-06T11:43:53;11.70;95.00
66088;DHT22;52872;52.994;6.940;2024-03-06T11:46:22;12.00;93.80
66088;DHT22;52872;52.994;6.940;2024-03-06T11:48:54;12.50;94.20
66088;DHT22;52872;52.994;6.940;2024-03-06T11:51:24;13.20;93.30
66088;DHT22;52872;52.994;6.940;2024-03-06T11:53:53;13.50;92.00
66088;DHT22;52872;52.994;6.940;2024-03-06T11:56:21;13.60;91.50
66088;DHT22;52872;52.994;6.940;2024-03-06T11:58:48;13.60;91.30
66088;DHT22;52872;52.994;6.940;2024-03-06T12:01:16;13.30;91.10
66088;DHT22;52872;52.994;6.940;2024-03-06T12:03:47;13.20;91.50
66088;DHT22;52872;52.994;6.940;2024-03-06T12:06:15;13.00;91.80
66088;DHT22;52872;52.994;6.940;2024-03-06T12:08:44;12.90;91.90
66088;DHT22;52872;52.994;6.940;2024-03-06T12:11:11;12.70;91.40
66088;DHT22;52872;52.994;6.940;2024-03-06T12:13:38;12.50;91.40
66088;DHT22;52872;52.994;6.940;2024-03-06T12:16:06;12.20;91.40
66088;DHT22;52872;52.994;6.940;2024-03-06T12:18:34;11.90;91.80
66088;DHT22;52872;52.994;6.940;2024-03-06T12:21:02;11.60;92.40
66088;DHT22;52872;52.994;6.940;2024-03-06T12:23:29;11.50;92.50
66088;DHT22;52872;52.994;6.940;2024-03-06T12:26:07;11.50;92.70
66088;DHT22;52872;52.994;6.940;2024-03-06T12:28:38;11.60;92.80
66088;DHT22;52872;52.994;6.940;2024-03-06T12:31:06;11.60;92.50
66088;DHT22;52872;52.994;6.940;2024-03-06T12:33:34;11.70;92.70
66088;DHT22;52872;52.994;6.940;2024-03-06T12:36:06;11.70;92.20
66088;DHT22;52872;52.994;6.940;2024-03-06T12:38:37;11.40;92.30
66088;DHT22;52872;52.994;6.940;2024-03-06T12:41:05;11.30;93.00
66088;DHT22;52872;52.994;6.940;2024-03-06T12:43:33;11.30;93.10
66088;DHT22;52872;52.994;6.940;2024-03-06T12:46:01;11.30;93.00
66088;DHT22;52872;52.994;6.940;2024-03-06T12:48:31;11.40;93.30
66088;DHT22;52872;52.994;6.940;2024-03-06T12:50:58;11.60;93.20
66088;DHT22;52872;52.994;6.940;2024-03-06T12:53:31;11.60;93.00
66088;DHT22;52872;52.994;6.940;2024-03-06T12:56:02;11.60;92.70
66088;DHT22;52872;52.994;6.940;2024-03-06T12:58:29;11.50;92.80
66088;DHT22;52872;52.994;6.940;2024-03-06T13:00:58;11.50;92.90
66088;DHT22;52872;52.994;6.940;2024-03-06T13:03:25;11.60;92.90
66088;DHT22;52872;52.994;6.940;2024-03-06T13:05:52;11.60;92.80
66088;DHT22;52872;52.994;6.940;2024-03-06T13:08:19;11.30;92.60
66088;DHT22;52872;52.994;6.940;2024-03-06T13:10:46;11.10;93.20
66088;DHT22;52872;52.994;6.940;2024-03-06T13:13:13;11.10;93.40
66088;DHT22;52872;52.994;6.940;2024-03-06T13:15:40;11.30;93.30
66088;DHT22;52872;52.994;6.940;2024-03-06T13:18:07;11.50;93.10
66088;DHT22;52872;52.994;6.940;2024-03-06T13:20:34;11.60;92.60
66088;DHT22;52872;52.994;6.940;2024-03-06T13:23:02;11.50;92.70
66088;DHT22;52872;52.994;6.940;2024-03-06T13:25:29;11.40;92.80
66088;DHT22;52872;52.994;6.940;2024-03-06T13:27:56;11.40;92.90
66088;DHT22;52872;52.994;6.940;2024-03-06T13:30:23;11.40;92.80
66088;DHT22;52872;52.994;6.940;2024-03-06T13:32:51;11.20;93.00
66088;DHT22;52872;52.994;6.940;2024-03-06T13:35:18;11.10;93.20
66088;DHT22;52872;52.994;6.940;2024-03-06T13:37:46;11.10;93.30
66088;DHT22;52872;52.994;6.940;2024-03-06T13:40:13;11.20;93.40
66088;DHT22;52872;52.994;6.940;2024-03-06T13:42:40;11.40;93.20
66088;DHT22;52872;52.994;6.940;2024-03-06T13:45:08;11.70;93.00
66088;DHT22;52872;52.994;6.940;2024-03-06T13:47:39;12.10;92.80
66088;DHT22;52872;52.994;6.940;2024-03-06T13:50:25;12.80;92.00
66088;DHT22;52872;52.994;6.940;2024-03-06T13:52:55;13.30;91.30
66088;DHT22;52872;52.994;6.940;2024-03-06T13:55:22;13.50;90.80
66088;DHT22;52872;52.994;6.940;2024-03-06T13:57:49;13.70;90.70
66088;DHT22;52872;52.994;6.940;2024-03-06T14:00:17;14.00;90.50
66088;DHT22;52872;52.994;6.940;2024-03-06T14:02:44;14.40;90.00
66088;DHT22;52872;52.994;6.940;2024-03-06T14:05:14;14.80;88.80
66088;DHT22;52872;52.994;6.940;2024-03-06T14:07:42;14.80;87.60
66088;DHT22;52872;52.994;6.940;2024-03-06T14:10:09;14.50;88.20
66088;DHT22;52872;52.994;6.940;2024-03-06T14:12:37;14.30;88.80
66088;DHT22;52872;52.994;6.940;2024-03-06T14:15:06;14.30;87.60
66088;DHT22;52872;52.994;6.940;2024-03-06T14:17:39;14.40;88.00
66088;DHT22;52872;52.994;6.940;2024-03-06T14:20:06;14.70;87.60
66088;DHT22;52872;52.994;6.940;2024-03-06T14:22:33;15.30;86.80
66088;DHT22;52872;52.994;6.940;2024-03-06T14:25:02;15.80;85.70
66088;DHT22;52872;52.994;6.940;2024-03-06T14:27:29;16.30;84.70
66088;DHT22;52872;52.994;6.940;2024-03-06T14:29:56;16.40;83.50
66088;DHT22;52872;52.994;6.940;2024-03-06T14:32:23;16.40;83.20
66088;DHT22;52872;52.994;6.940;2024-03-06T14:34:52;16.60;83.10
66088;DHT22;52872;52.994;6.940;2024-03-06T14:37:19;16.90;82.60
66088;DHT22;52872;52.994;6.940;2024-03-06T14:39:46;17.00;81.90
66088;DHT22;52872;52.994;6.940;2024-03-06T14:42:13;17.00;81.40
66088;DHT22;52872;52.994;6.940;2024-03-06T14:44:41;16.90;81.60
66088;DHT22;52872;52.994;6.940;2024-03-06T14:47:10;16.60;81.60
66088;DHT22;52872;52.994;6.940;2024-03-06T14:49:37;16.00;82.70
66088;DHT22;52872;52.994;6.940;2024-03-06T14:52:05;15.80;83.30
66088;DHT22;52872;52.994;6.940;2024-03-06T14:54:33;15.70;83.20
66088;DHT22;52872;52.994;6.940;2024-03-06T14:57:00;15.70;83.20
66088;DHT22;52872;52.994;6.940;2024-03-06T14:59:27;15.70;83.30
66088;DHT22;52872;52.994;6.940;2024-03-06T15:01:54;15.70;83.10
66088;DHT22;52872;52.994;6.940;2024-03-06T15:04:21;15.80;82.90
66088;DHT22;52872;52.994;6.940;2024-03-06T15:06:49;15.70;82.60
66088;DHT22;52872;52.994;6.940;2024-03-06T15:09:19;15.60;83.10
66088;DHT22;52872;52.994;6.940;2024-03-06T15:11:49;15.60;83.40
66088;DHT22;52872;52.994;6.940;2024-03-06T15:14:18;15.50;83.50
66088;DHT22;52872;52.994;6.940;2024-03-06T15:16:46;15.30;84.00
66088;DHT22;52872;52.994;6.940;2024-03-06T15:19:14;15.10;84.20
66088;DHT22;52872;52.994;6.940;2024-03-06T15:21:42;15.00;84.60
66088;DHT22;52872;52.994;6.940;2024-03-06T15:24:09;14.90;84.70
66088;DHT22;52872;52.994;6.940;2024-03-06T15:26:36;14.90;85.10
66088;DHT22;52872;52.994;6.940;2024-03-06T15:29:04;14.80;85.00
66088;DHT22;52872;52.994;6.940;2024-03-06T15:31:33;14.60;85.30
66088;DHT22;52872;52.994;6.940;2024-03-06T15:34:01;14.30;85.90
66088;DHT22;52872;52.994;6.940;2024-03-06T15:36:28;13.90;86.60
66088;DHT22;52872;52.994;6.940;2024-03-06T15:38:55;13.60;87.20
66088;DHT22;52872;52.994;6.940;2024-03-06T15:41:24;13.60;87.80
66088;DHT22;52872;52.994;6.940;2024-03-06T15:43:51;13.70;87.80
66088;DHT22;52872;52.994;6.940;2024-03-06T15:46:18;13.90;87.40
66088;DHT22;52872;52.994;6.940;2024-03-06T15:48:46;13.80;87.30
66088;DHT22;52872;52.994;6.940;2024-03-06T15:51:13;13.50;87.90
66088;DHT22;52872;52.994;6.940;2024-03-06T15:53:40;13.00;88.70
66088;DHT22;52872;52.994;6.940;2024-03-06T15:56:07;12.70;89.60
66088;DHT22;52872;52.994;6.940;2024-03-06T15:58:35;12.50;90.00
66088;DHT22;52872;52.994;6.940;2024-03-06T16:01:02;12.40;90.20
66088;DHT22;52872;52.994;6.940;2024-03-06T16:03:31;12.10;90.40